createdAt,value
2022-10-16T00:02:41.347Z,1013.80
2022-10-16T00:07:40.530Z,1013.78
2022-10-16T00:12:39.754Z,1013.74
2022-10-16T00:17:38.997Z,1013.70
2022-10-16T00:22:40.223Z,1013.73
2022-10-16T00:27:37.419Z,1013.76
2022-10-16T00:32:36.591Z,1013.64
2022-10-16T00:37:35.777Z,1013.61
2022-10-16T00:42:34.959Z,1013.71
2022-10-16T00:47:34.157Z,1013.77
2022-10-16T00:52:33.370Z,1013.85
2022-10-16T00:57:32.573Z,1013.73
2022-10-16T01:02:32.755Z,1013.71
2022-10-16T01:07:30.933Z,1013.78
2022-10-16T01:12:30.127Z,1013.81
2022-10-16T01:17:30.334Z,1013.82
2022-10-16T01:22:28.528Z,1013.90
2022-10-16T01:27:28.054Z,1013.79
2022-10-16T01:32:27.054Z,1013.67
2022-10-16T01:37:27.556Z,1013.85
2022-10-16T01:42:25.571Z,1013.83
2022-10-16T01:47:28.440Z,1013.75
2022-10-16T01:52:24.190Z,1013.67
2022-10-16T01:57:23.342Z,1013.72
2022-10-16T02:02:23.759Z,1013.68
2022-10-16T02:07:21.659Z,1013.74
2022-10-16T02:12:20.993Z,1013.67
2022-10-16T02:17:20.288Z,1013.66
2022-10-16T02:22:20.580Z,1013.74
2022-10-16T02:27:18.875Z,1013.66
2022-10-16T02:32:18.170Z,1013.66
2022-10-16T02:37:18.475Z,1013.68
2022-10-16T02:42:16.813Z,1013.73
2022-10-16T02:47:15.909Z,1013.76
2022-10-16T02:52:15.228Z,1013.79
2022-10-16T02:57:14.571Z,1013.74
2022-10-16T03:02:15.685Z,1013.73
2022-10-16T03:07:12.981Z,1013.91
2022-10-16T03:12:12.291Z,1013.86
2022-10-16T03:17:11.577Z,1013.75
2022-10-16T03:22:10.869Z,1013.81
2022-10-16T03:27:11.175Z,1013.84
2022-10-16T03:32:09.491Z,1013.83
2022-10-16T03:37:08.809Z,1013.84
2022-10-16T03:42:09.146Z,1013.85
2022-10-16T03:47:08.271Z,1013.87
2022-10-16T03:52:06.620Z,1013.77
2022-10-16T03:57:05.898Z,1013.73
2022-10-16T04:02:05.206Z,1013.70
2022-10-16T04:07:04.516Z,1013.73
2022-10-16T04:12:03.827Z,1013.70
2022-10-16T04:17:05.137Z,1013.69
2022-10-16T04:22:03.483Z,1013.77
2022-10-16T04:27:01.610Z,1013.83
2022-10-16T04:32:00.909Z,1013.85
2022-10-16T04:37:01.205Z,1013.94
2022-10-16T04:41:59.503Z,1014.15
2022-10-16T04:46:58.795Z,1014.21
2022-10-16T04:51:59.076Z,1014.14
2022-10-16T04:56:58.363Z,1014.11
2022-10-16T05:01:56.658Z,1014.09
2022-10-16T05:06:55.953Z,1014.19
2022-10-16T05:11:55.264Z,1014.31
2022-10-16T05:16:54.574Z,1014.25
2022-10-16T05:21:54.877Z,1014.20
2022-10-16T05:26:53.172Z,1014.26
2022-10-16T05:31:53.481Z,1014.31
2022-10-16T05:36:51.770Z,1014.42
2022-10-16T05:41:52.154Z,1014.36
2022-10-16T05:46:51.253Z,1014.51
2022-10-16T05:51:49.591Z,1014.58
2022-10-16T05:56:48.759Z,1014.68
2022-10-16T06:01:47.883Z,1014.79
2022-10-16T06:06:47.236Z,1014.79
2022-10-16T06:11:46.515Z,1014.74
2022-10-16T06:16:46.809Z,1014.74
2022-10-16T06:21:45.077Z,1014.78
2022-10-16T06:26:46.395Z,1014.87
2022-10-16T06:31:43.681Z,1014.94
2022-10-16T06:36:44.009Z,1015.04
2022-10-16T06:41:42.285Z,1014.98
2022-10-16T06:46:42.599Z,1015.04
2022-10-16T06:51:43.111Z,1015.08
2022-10-16T06:56:41.147Z,1015.18
2022-10-16T07:01:39.255Z,1015.27
2022-10-16T07:06:38.556Z,1015.34
2022-10-16T07:11:37.838Z,1015.34
2022-10-16T07:16:37.123Z,1015.36
2022-10-16T07:21:37.514Z,1015.49
2022-10-16T07:26:35.621Z,1015.46
2022-10-16T07:31:34.907Z,1015.41
2022-10-16T07:36:35.259Z,1015.48
2022-10-16T07:41:36.805Z,1015.49
2022-10-16T07:46:33.727Z,1015.54
2022-10-16T07:51:31.035Z,1015.64
2022-10-16T07:56:32.354Z,1015.57
2022-10-16T08:01:30.690Z,1015.68
2022-10-16T08:06:29.987Z,1015.75
2022-10-16T08:11:29.415Z,1015.80
2022-10-16T08:16:28.531Z,1015.84
2022-10-16T08:21:27.840Z,1015.89
2022-10-16T08:26:27.170Z,1015.97
2022-10-16T08:31:27.555Z,1016.05
2022-10-16T08:36:25.632Z,1016.04
2022-10-16T08:41:24.947Z,1016.06
2022-10-16T08:46:25.219Z,1016.13
2022-10-16T08:51:23.509Z,1016.13
2022-10-16T08:56:22.821Z,1016.17
2022-10-16T09:01:23.208Z,1016.16
2022-10-16T09:06:21.317Z,1016.12
2022-10-16T09:11:21.616Z,1016.09
2022-10-16T09:16:19.914Z,1016.14
2022-10-16T09:21:19.238Z,1016.15
2022-10-16T09:31:18.853Z,1016.19
2022-10-16T09:36:17.172Z,1016.23
2022-10-16T09:41:16.491Z,1016.25
2022-10-16T09:46:17.834Z,1016.30
2022-10-16T09:51:15.030Z,1016.28
2022-10-16T09:56:14.208Z,1016.17
2022-10-16T10:01:14.328Z,1016.19
2022-10-16T10:06:18.343Z,1016.21
2022-10-16T10:11:15.966Z,1016.21
2022-10-16T10:16:11.141Z,1016.23
2022-10-16T10:21:11.450Z,1016.30
2022-10-16T10:26:10.805Z,1016.27
2022-10-16T10:31:10.131Z,1016.23
2022-10-16T10:36:08.441Z,1016.20
2022-10-16T10:41:07.731Z,1016.17
2022-10-16T10:46:08.047Z,1016.10
2022-10-16T10:51:06.344Z,1016.06
2022-10-16T10:56:06.660Z,1015.99
2022-10-16T11:01:04.968Z,1015.97
2022-10-16T11:06:03.277Z,1015.97
2022-10-16T11:11:03.622Z,1015.95
2022-10-16T11:16:03.973Z,1015.99
2022-10-16T11:21:03.068Z,1016.00
2022-10-16T11:26:01.380Z,1015.86
2022-10-16T11:31:00.518Z,1015.76
2022-10-16T11:36:00.873Z,1015.74
2022-10-16T11:40:58.958Z,1015.64
2022-10-16T11:45:58.292Z,1015.61
2022-10-16T11:50:57.610Z,1015.55
2022-10-16T11:55:58.933Z,1015.55
2022-10-16T12:00:56.243Z,1015.53
2022-10-16T12:05:55.615Z,1015.55
2022-10-16T12:10:55.742Z,1015.52
2022-10-16T12:15:59.275Z,1015.45
2022-10-16T12:20:53.222Z,1015.48
2022-10-16T12:25:53.562Z,1015.38
2022-10-16T12:30:51.861Z,1015.46
2022-10-16T12:35:52.185Z,1015.38
2022-10-16T12:40:51.494Z,1015.29
2022-10-16T12:45:50.824Z,1015.22
2022-10-16T12:50:50.167Z,1015.21
2022-10-16T12:55:48.342Z,1015.14
2022-10-16T13:00:48.514Z,1015.10
2022-10-16T13:05:48.645Z,1015.06
2022-10-16T13:10:46.958Z,1015.09
2022-10-16T13:15:46.283Z,1015.11
2022-10-16T13:20:44.608Z,1015.03
2022-10-16T13:25:43.897Z,1015.06
2022-10-16T13:30:44.156Z,1015.03
2022-10-16T13:35:42.425Z,1015.03
2022-10-16T13:40:41.695Z,1015.03
2022-10-16T13:45:43.969Z,1015.01
2022-10-16T13:50:41.274Z,1015.01
2022-10-16T13:55:39.619Z,1014.98
2022-10-16T14:00:39.774Z,1015.08
2022-10-16T14:05:38.937Z,1015.03
2022-10-16T14:10:37.066Z,1015.07
2022-10-16T14:15:37.362Z,1015.07
2022-10-16T14:20:36.707Z,1015.03
2022-10-16T14:25:35.051Z,1015.03
2022-10-16T14:30:36.228Z,1015.06
2022-10-16T14:35:33.343Z,1015.11
2022-10-16T14:40:32.691Z,1015.09
2022-10-16T14:45:31.957Z,1015.13
2022-10-16T14:50:31.265Z,1015.15
2022-10-16T14:55:30.571Z,1015.23
2022-10-16T15:00:31.877Z,1015.23
2022-10-16T15:05:30.184Z,1015.18
2022-10-16T15:10:28.478Z,1015.20
2022-10-16T15:15:27.784Z,1015.16
2022-10-16T15:20:27.102Z,1015.27
2022-10-16T15:25:26.583Z,1015.29
2022-10-16T15:30:25.709Z,1015.26
2022-10-16T15:35:26.027Z,1015.31
2022-10-16T15:40:24.341Z,1015.35
2022-10-16T15:45:23.868Z,1015.40
2022-10-16T15:50:23.001Z,1015.45
2022-10-16T15:55:22.312Z,1015.53
2022-10-16T16:00:21.620Z,1015.55
2022-10-16T16:05:22.967Z,1015.62
2022-10-16T16:10:21.160Z,1015.71
2022-10-16T16:15:19.288Z,1015.68
2022-10-16T16:20:18.671Z,1015.73
2022-10-16T16:25:17.787Z,1015.76
2022-10-16T16:30:19.818Z,1015.80
2022-10-16T16:35:17.325Z,1015.91
2022-10-16T16:40:16.823Z,1015.97
2022-10-16T16:45:14.812Z,1016.01
2022-10-16T16:50:14.844Z,1016.08
2022-10-16T16:55:13.251Z,1016.22
2022-10-16T17:00:12.508Z,1016.36
2022-10-16T17:05:12.585Z,1016.47
2022-10-16T17:10:11.112Z,1016.62
2022-10-16T17:15:10.304Z,1016.71
2022-10-16T17:20:09.791Z,1016.72
2022-10-16T17:25:08.914Z,1016.90
2022-10-16T17:30:09.356Z,1017.03
2022-10-16T17:35:08.473Z,1017.14
2022-10-16T17:40:06.906Z,1017.19
2022-10-16T17:45:06.686Z,1017.32
2022-10-16T17:50:05.033Z,1017.46
2022-10-16T17:55:08.281Z,1017.49
2022-10-16T18:00:05.517Z,1017.65
2022-10-16T18:05:02.399Z,1017.76
2022-10-16T18:10:12.421Z,1017.75
2022-10-16T18:15:02.353Z,1017.82
2022-10-16T18:20:00.324Z,1017.90
2022-10-16T18:25:00.791Z,1017.99
2022-10-16T18:29:59.975Z,1018.15
2022-10-16T18:34:58.849Z,1018.11
2022-10-16T18:39:57.330Z,1018.14
2022-10-16T18:44:56.597Z,1018.27
2022-10-16T18:49:55.768Z,1018.31
2022-10-16T18:54:52.984Z,1018.31
2022-10-16T18:59:55.200Z,1018.27
2022-10-16T19:04:53.413Z,1018.32
2022-10-16T19:09:54.676Z,1018.33
2022-10-16T19:14:51.853Z,1018.42
2022-10-16T19:19:51.071Z,1018.53
2022-10-16T19:24:50.116Z,1018.51
2022-10-16T19:29:49.275Z,1018.50
2022-10-16T19:34:48.371Z,1018.52
2022-10-16T19:39:47.880Z,1018.56
2022-10-16T19:44:47.065Z,1018.56
2022-10-16T19:49:48.217Z,1018.55
2022-10-16T19:54:46.265Z,1018.64
2022-10-16T19:59:45.831Z,1018.62
2022-10-16T20:04:44.844Z,1018.69
2022-10-16T20:09:42.834Z,1018.81
2022-10-16T20:14:41.990Z,1018.91
2022-10-16T20:19:41.203Z,1018.95
2022-10-16T20:24:40.403Z,1018.94
2022-10-16T20:29:40.611Z,1019.05
2022-10-16T20:34:39.853Z,1019.05
2022-10-16T20:39:38.077Z,1019.20
2022-10-16T20:44:37.292Z,1019.28
2022-10-16T20:49:40.747Z,1019.29
2022-10-16T20:54:36.682Z,1019.31
2022-10-16T20:59:34.899Z,1019.31
2022-10-16T21:04:35.142Z,1019.27
2022-10-16T21:09:34.330Z,1019.20
2022-10-16T21:14:31.492Z,1019.26
2022-10-16T21:19:31.671Z,1019.28
2022-10-16T21:24:31.823Z,1019.31
2022-10-16T21:29:32.076Z,1019.30
2022-10-16T21:34:29.259Z,1019.35
2022-10-16T21:39:28.437Z,1019.37
2022-10-16T21:44:28.621Z,1019.36
2022-10-16T21:49:26.804Z,1019.36
2022-10-16T21:54:25.977Z,1019.34
2022-10-16T21:59:25.168Z,1019.27
2022-10-16T22:04:25.363Z,1019.35
2022-10-16T22:09:24.542Z,1019.40
2022-10-16T22:14:23.727Z,1019.35
2022-10-16T22:19:21.911Z,1019.35
2022-10-16T22:24:21.156Z,1019.37
2022-10-16T22:29:20.403Z,1019.33
2022-10-16T22:34:19.602Z,1019.33
2022-10-16T22:39:19.769Z,1019.34
2022-10-16T22:44:17.959Z,1019.34
2022-10-16T22:49:17.141Z,1019.32
2022-10-16T22:54:16.317Z,1019.33
2022-10-16T22:59:16.477Z,1019.37
2022-10-16T23:04:14.657Z,1019.42
2022-10-16T23:09:14.835Z,1019.36
2022-10-16T23:14:15.105Z,1019.38
2022-10-16T23:19:13.409Z,1019.35
2022-10-16T23:24:11.729Z,1019.40
2022-10-16T23:29:11.108Z,1019.39
2022-10-16T23:34:11.253Z,1019.45
2022-10-16T23:39:10.571Z,1019.50
2022-10-16T23:44:09.723Z,1019.54
2022-10-16T23:49:08.059Z,1019.60
2022-10-16T23:54:09.411Z,1019.61
2022-10-16T23:59:07.558Z,1019.62
